Time;durP1;ratioP1;P1;durP2;ratioP2;P2;SDS_P1;SDS_P2;PMS_P1;PMS_P2;Temp;Humidity;BMP_temperature;BMP_pressure;BME280_temperature;BME280_humidity;BME280_pressure;Samples;Min_cycle;Max_cycle;Signal;HPM_P1;HPM_P2
2023/01/29 00:01:36;;;;;;;;;;;3.80;99.90;;;;;;5134342;27;20282;-55
2023/01/29 00:04:02;;;;;;;;;;;3.80;99.90;;;;;;5133656;27;19914;-56
2023/01/29 00:06:27;;;;;;;;;;;3.80;99.90;;;;;;5134536;27;19911;-56
2023/01/29 00:08:53;;;;;;;;;;;3.80;99.90;;;;;;5134183;27;19915;-57
2023/01/29 00:11:19;;;;;;;;;;;3.80;99.90;;;;;;5133654;27;19907;-56
2023/01/29 00:13:45;;;;;;;;;;;3.80;99.90;;;;;;5134399;27;20002;-56
2023/01/29 00:16:10;;;;;;;;;;;3.80;99.90;;;;;;5134276;27;20015;-56
2023/01/29 00:18:39;;;;;;;;;;;3.80;99.90;;;;;;5133452;27;19911;-56
2023/01/29 00:21:11;;;;;;;;;;;3.80;99.90;;;;;;5118122;27;19912;-56
2023/01/29 00:23:37;;;;;;;;;;;3.80;99.90;;;;;;5112822;28;19923;-55
2023/01/29 00:26:02;;;;;;;;;;;3.80;99.90;;;;;;5112421;28;19908;-55
2023/01/29 00:28:28;;;;;;;;;;;3.80;99.90;;;;;;5112700;28;20397;-55
2023/01/29 00:30:53;;;;;;;;;;;3.80;99.90;;;;;;5113107;28;20002;-56
2023/01/29 00:33:19;;;;;;;;;;;3.80;99.90;;;;;;5113475;28;20262;-55
2023/01/29 00:35:44;;;;;;;;;;;3.80;99.90;;;;;;5113534;28;19919;-55
2023/01/29 00:38:10;;;;;;;;;;;3.70;99.90;;;;;;5112662;28;19918;-56
2023/01/29 00:44:56;;;;;;;;;;;3.80;99.90;;;;;;5126267;27;19911;-55
2023/01/29 00:46:06;;;;;;;;;;;3.80;99.90;;;;;;5133442;27;19930;-55
2023/01/29 00:48:33;;;;;;;;;;;3.80;99.90;;;;;;5133925;27;20282;-56
2023/01/29 00:50:58;;;;;;;;;;;3.80;99.90;;;;;;5133866;27;19915;-55
2023/01/29 00:53:23;;;;;;;;;;;3.80;99.90;;;;;;5132623;27;19907;-55
2023/01/29 00:55:49;;;;;;;;;;;3.80;99.90;;;;;;5133486;27;19924;-55
2023/01/29 00:58:21;;;;;;;;;;;3.80;99.90;;;;;;5133828;27;19939;-55
2023/01/29 01:00:47;;;;;;;;;;;3.90;99.90;;;;;;5115803;27;19920;-56
2023/01/29 01:03:13;;;;;;;;;;;3.90;99.90;;;;;;5113127;28;19908;-55
2023/01/29 01:05:38;;;;;;;;;;;3.90;99.90;;;;;;5113118;28;20254;-55
2023/01/29 01:10:19;;;;;;;;;;;3.90;99.90;;;;;;5111910;28;19908;-56
2023/01/29 01:10:57;;;;;;;;;;;3.90;99.90;;;;;;5126170;28;19999;-56
2023/01/29 01:13:22;;;;;;;;;;;3.90;99.90;;;;;;5133044;28;19998;-55
2023/01/29 01:15:48;;;;;;;;;;;4.00;99.90;;;;;;5133654;28;20434;-56
2023/01/29 01:18:15;;;;;;;;;;;3.90;99.90;;;;;;5128205;28;19912;-56
2023/01/29 01:20:41;;;;;;;;;;;3.90;99.90;;;;;;5112261;28;19908;-56
2023/01/29 01:23:06;;;;;;;;;;;3.90;99.90;;;;;;5113044;28;19919;-56
2023/01/29 01:25:32;;;;;;;;;;;3.90;99.90;;;;;;5112878;28;19908;-56
2023/01/29 01:27:58;;;;;;;;;;;4.00;99.90;;;;;;5112350;28;19961;-55
2023/01/29 01:30:24;;;;;;;;;;;4.00;99.90;;;;;;5112992;28;19907;-55
2023/01/29 01:32:49;;;;;;;;;;;3.90;99.90;;;;;;5112937;28;19908;-56
2023/01/29 01:35:15;;;;;;;;;;;4.00;99.90;;;;;;5111924;28;20053;-56
2023/01/29 01:37:41;;;;;;;;;;;4.00;99.90;;;;;;5112912;28;20362;-55
2023/01/29 01:40:11;;;;;;;;;;;4.00;99.90;;;;;;5112863;28;19918;-55
2023/01/29 01:42:40;;;;;;;;;;;4.00;99.90;;;;;;5112192;28;19919;-56
2023/01/29 01:45:09;;;;;;;;;;;4.00;99.90;;;;;;5112805;28;20427;-56
2023/01/29 01:47:43;;;;;;;;;;;4.00;99.90;;;;;;5112669;28;19908;-55
2023/01/29 01:50:10;;;;;;;;;;;4.00;99.90;;;;;;5112043;28;19912;-55
2023/01/29 01:52:38;;;;;;;;;;;4.00;99.90;;;;;;5112817;28;20382;-57
2023/01/29 01:55:05;;;;;;;;;;;4.00;99.90;;;;;;5112421;28;19928;-56
2023/01/29 01:57:31;;;;;;;;;;;4.00;99.90;;;;;;5112003;28;19908;-56
2023/01/29 02:00:00;;;;;;;;;;;4.00;99.90;;;;;;5112697;28;19918;-56
2023/01/29 02:10:44;;;;;;;;;;;4.00;99.90;;;;;;5112186;28;20025;-55
2023/01/29 02:13:10;;;;;;;;;;;4.00;99.90;;;;;;5112503;28;19912;-56
2023/01/29 02:15:36;;;;;;;;;;;4.00;99.90;;;;;;5112426;28;19922;-55
2023/01/29 02:18:01;;;;;;;;;;;4.10;99.90;;;;;;5113404;28;19908;-56
2023/01/29 02:20:28;;;;;;;;;;;4.10;99.90;;;;;;5136261;27;20409;-57
2023/01/29 02:22:54;;;;;;;;;;;4.10;99.90;;;;;;5136568;27;19908;-55
2023/01/29 02:25:39;;;;;;;;;;;4.10;99.90;;;;;;5135777;27;19907;-55
2023/01/29 02:28:43;;;;;;;;;;;4.10;99.90;;;;;;5136375;27;19914;-55
2023/01/29 02:31:14;;;;;;;;;;;4.10;99.90;;;;;;5032209;28;19910;-55
2023/01/29 02:33:40;;;;;;;;;;;4.10;99.90;;;;;;5032759;28;19913;-56
2023/01/29 02:36:08;;;;;;;;;;;4.10;99.90;;;;;;5073898;28;20401;-55
2023/01/29 02:38:52;;;;;;;;;;;4.10;99.90;;;;;;5115105;28;19908;-55
2023/01/29 02:41:23;;;;;;;;;;;4.10;99.90;;;;;;5115608;28;19914;-56
2023/01/29 02:43:59;;;;;;;;;;;4.10;99.90;;;;;;5116455;27;19912;-56
2023/01/29 02:46:31;;;;;;;;;;;4.10;99.90;;;;;;5114855;28;20278;-55
2023/01/29 02:48:59;;;;;;;;;;;4.10;99.90;;;;;;5115722;28;20118;-57
2023/01/29 02:51:31;;;;;;;;;;;4.10;99.90;;;;;;5115560;28;19908;-57
2023/01/29 02:54:02;;;;;;;;;;;4.10;99.90;;;;;;5115507;28;20298;-57
2023/01/29 02:56:32;;;;;;;;;;;4.10;99.90;;;;;;5115330;28;20397;-55
2023/01/29 02:59:03;;;;;;;;;;;4.10;99.90;;;;;;5114613;28;19937;-57
2023/01/29 03:01:34;;;;;;;;;;;4.10;99.90;;;;;;5115460;28;19953;-56
2023/01/29 03:04:03;;;;;;;;;;;4.10;99.90;;;;;;5115282;28;19912;-56
2023/01/29 03:06:31;;;;;;;;;;;4.00;99.90;;;;;;5114741;28;20267;-57
2023/01/29 03:08:58;;;;;;;;;;;4.10;99.90;;;;;;5115219;28;19918;-56
2023/01/29 03:11:26;;;;;;;;;;;4.10;99.90;;;;;;5117250;27;19911;-56
2023/01/29 03:13:58;;;;;;;;;;;4.00;99.90;;;;;;5135221;27;20369;-56
2023/01/29 03:16:26;;;;;;;;;;;4.00;99.90;;;;;;5135614;27;19985;-56
2023/01/29 03:19:04;;;;;;;;;;;4.00;99.90;;;;;;5135592;27;19907;-57
2023/01/29 03:32:37;;;;;;;;;;;4.00;99.90;;;;;;5135746;27;20008;-55
2023/01/29 03:35:04;;;;;;;;;;;4.00;99.90;;;;;;5134222;27;20374;-56
2023/01/29 03:37:46;;;;;;;;;;;4.00;99.90;;;;;;5135261;27;19907;-56
2023/01/29 03:40:12;;;;;;;;;;;4.00;99.90;;;;;;5135069;27;19907;-56
2023/01/29 03:42:46;;;;;;;;;;;4.00;99.90;;;;;;5134061;27;19911;-57
2023/01/29 03:45:17;;;;;;;;;;;4.00;99.90;;;;;;5135119;27;19908;-56
2023/01/29 03:47:55;;;;;;;;;;;4.00;99.90;;;;;;5134550;27;19915;-57
2023/01/29 03:50:23;;;;;;;;;;;4.00;99.90;;;;;;5134214;27;19907;-56
2023/01/29 03:53:04;;;;;;;;;;;4.00;99.90;;;;;;5134074;27;20048;-56
2023/01/29 03:55:34;;;;;;;;;;;4.00;99.90;;;;;;5132704;27;20374;-56
2023/01/29 03:58:02;;;;;;;;;;;4.00;99.90;;;;;;5134056;27;19965;-56
2023/01/29 04:00:39;;;;;;;;;;;4.00;99.90;;;;;;5134652;27;19908;-56
2023/01/29 04:03:11;;;;;;;;;;;4.00;99.90;;;;;;5133966;27;19907;-56
2023/01/29 04:05:41;;;;;;;;;;;4.10;99.90;;;;;;5134607;27;19919;-56
2023/01/29 04:08:09;;;;;;;;;;;4.10;99.90;;;;;;5134632;27;19911;-55
2023/01/29 04:10:36;;;;;;;;;;;4.10;99.90;;;;;;5133746;27;19930;-56
2023/01/29 04:13:04;;;;;;;;;;;4.10;99.90;;;;;;5118992;27;19912;-56
2023/01/29 04:15:30;;;;;;;;;;;4.10;99.90;;;;;;5113854;28;19920;-56
2023/01/29 04:17:56;;;;;;;;;;;4.10;99.90;;;;;;5113311;28;19999;-56
2023/01/29 04:20:22;;;;;;;;;;;4.10;99.90;;;;;;5113824;28;20063;-57
2023/01/29 04:22:49;;;;;;;;;;;4.10;99.90;;;;;;5113820;28;20290;-55
2023/01/29 04:25:16;;;;;;;;;;;4.10;99.90;;;;;;5113013;28;19947;-56
2023/01/29 04:28:01;;;;;;;;;;;4.10;99.90;;;;;;5114026;28;19908;-56
2023/01/29 04:30:33;;;;;;;;;;;4.10;99.90;;;;;;5098330;28;19912;-56
2023/01/29 04:33:07;;;;;;;;;;;4.10;99.90;;;;;;5113603;28;20360;-56
2023/01/29 04:35:52;;;;;;;;;;;4.10;99.90;;;;;;5112735;28;19915;-56
2023/01/29 04:38:25;;;;;;;;;;;4.10;99.90;;;;;;5111713;28;19916;-57
2023/01/29 04:40:51;;;;;;;;;;;4.10;99.90;;;;;;5112636;28;19908;-55
2023/01/29 04:43:29;;;;;;;;;;;4.10;99.90;;;;;;5111848;28;19918;-56
2023/01/29 04:46:14;;;;;;;;;;;4.10;99.90;;;;;;5112718;28;19915;-56
2023/01/29 04:48:43;;;;;;;;;;;4.20;99.90;;;;;;5111778;28;19915;-56
2023/01/29 04:51:14;;;;;;;;;;;4.20;99.90;;;;;;5112327;28;20281;-56
2023/01/29 04:53:49;;;;;;;;;;;4.20;99.90;;;;;;5113432;28;19908;-57
2023/01/29 04:56:37;;;;;;;;;;;4.20;99.90;;;;;;5113078;28;19983;-57
2023/01/29 04:59:05;;;;;;;;;;;4.20;99.90;;;;;;5112549;28;19908;-57
2023/01/29 05:01:32;;;;;;;;;;;4.20;99.90;;;;;;5112668;28;20220;-58
2023/01/29 05:03:59;;;;;;;;;;;4.20;99.90;;;;;;5113251;28;19941;-56
2023/01/29 05:06:24;;;;;;;;;;;4.20;99.90;;;;;;5112577;28;20482;-56
2023/01/29 05:08:50;;;;;;;;;;;4.30;99.90;;;;;;5113212;28;19951;-56
2023/01/29 05:11:17;;;;;;;;;;;4.30;99.90;;;;;;5112990;28;19912;-56
2023/01/29 05:13:43;;;;;;;;;;;4.20;99.90;;;;;;5131739;28;19922;-56
2023/01/29 05:16:24;;;;;;;;;;;4.30;99.90;;;;;;5133484;28;19919;-56
2023/01/29 05:18:50;;;;;;;;;;;4.30;99.90;;;;;;5133581;28;19908;-56
2023/01/29 05:21:15;;;;;;;;;;;4.30;99.90;;;;;;5132469;28;19964;-57
2023/01/29 05:23:52;;;;;;;;;;;4.30;99.90;;;;;;5133677;28;20412;-57
2023/01/29 05:29:02;;;;;;;;;;;4.30;99.90;;;;;;5133876;28;19976;-56
2023/01/29 05:31:27;;;;;;;;;;;4.30;99.90;;;;;;5133637;28;20362;-56
2023/01/29 05:33:54;;;;;;;;;;;4.30;99.90;;;;;;5132439;28;19994;-57
2023/01/29 05:36:20;;;;;;;;;;;4.30;99.90;;;;;;5133343;28;19915;-56
2023/01/29 05:38:45;;;;;;;;;;;4.30;99.90;;;;;;5133389;28;19915;-56
2023/01/29 05:41:11;;;;;;;;;;;4.30;99.90;;;;;;5132274;28;20392;-56
2023/01/29 05:43:36;;;;;;;;;;;4.30;99.90;;;;;;5133366;28;19972;-56
2023/01/29 05:46:01;;;;;;;;;;;4.30;99.90;;;;;;5133312;28;19913;-56
2023/01/29 05:48:27;;;;;;;;;;;4.30;99.90;;;;;;5132599;28;20346;-56
2023/01/29 05:50:53;;;;;;;;;;;4.30;99.90;;;;;;5133053;28;19994;-57
2023/01/29 05:53:19;;;;;;;;;;;4.30;99.90;;;;;;5133245;27;20007;-56
2023/01/29 05:55:45;;;;;;;;;;;4.30;99.90;;;;;;5135538;27;20312;-56
2023/01/29 05:58:11;;;;;;;;;;;4.30;99.90;;;;;;5136282;27;19964;-55
2023/01/29 06:00:36;;;;;;;;;;;4.30;99.90;;;;;;5136098;27;19911;-56
2023/01/29 06:03:01;;;;;;;;;;;4.30;99.90;;;;;;5132067;27;19966;-56
2023/01/29 06:05:27;;;;;;;;;;;4.40;99.90;;;;;;5126867;27;19961;-56
2023/01/29 06:07:52;;;;;;;;;;;4.40;99.90;;;;;;5116181;28;19935;-56
2023/01/29 06:10:18;;;;;;;;;;;4.30;99.90;;;;;;5125020;27;19912;-57
2023/01/29 06:12:43;;;;;;;;;;;4.40;99.90;;;;;;5135960;27;20373;-55
2023/01/29 06:15:10;;;;;;;;;;;4.30;99.90;;;;;;5135882;27;19919;-57
2023/01/29 06:17:35;;;;;;;;;;;4.30;99.90;;;;;;5135305;27;19987;-55
2023/01/29 06:20:01;;;;;;;;;;;4.30;99.90;;;;;;5136431;27;20462;-56
2023/01/29 06:22:26;;;;;;;;;;;4.30;99.90;;;;;;5136339;27;20297;-56
2023/01/29 06:24:52;;;;;;;;;;;4.30;99.90;;;;;;5136265;27;20044;-56
2023/01/29 06:27:17;;;;;;;;;;;4.30;99.90;;;;;;5136620;27;19908;-56
2023/01/29 06:29:43;;;;;;;;;;;4.30;99.90;;;;;;5135619;27;20010;-56
2023/01/29 06:32:08;;;;;;;;;;;4.30;99.90;;;;;;5136712;27;20325;-56
2023/01/29 06:34:34;;;;;;;;;;;4.30;99.90;;;;;;5123495;27;19957;-56
2023/01/29 06:36:59;;;;;;;;;;;4.30;99.90;;;;;;5115048;28;19923;-56
2023/01/29 06:39:25;;;;;;;;;;;4.30;99.90;;;;;;5115746;28;20256;-57
2023/01/29 06:41:50;;;;;;;;;;;4.40;99.90;;;;;;5115845;28;19914;-57
2023/01/29 06:44:16;;;;;;;;;;;4.40;99.90;;;;;;5115035;28;19915;-57
2023/01/29 06:46:41;;;;;;;;;;;4.40;99.90;;;;;;5115669;28;19908;-56
2023/01/29 06:49:07;;;;;;;;;;;4.40;99.90;;;;;;5115498;28;20047;-56
2023/01/29 06:51:32;;;;;;;;;;;4.40;99.90;;;;;;5126968;27;20296;-56
2023/01/29 06:53:58;;;;;;;;;;;4.40;99.90;;;;;;5135898;27;19955;-56
2023/01/29 06:56:23;;;;;;;;;;;4.30;99.90;;;;;;5135976;27;20018;-57
2023/01/29 06:58:48;;;;;;;;;;;4.30;99.90;;;;;;5135325;27;19998;-56
2023/01/29 07:01:14;;;;;;;;;;;4.30;99.90;;;;;;5135932;27;20353;-55
2023/01/29 07:03:42;;;;;;;;;;;4.30;99.90;;;;;;5135902;27;19907;-55
2023/01/29 07:06:08;;;;;;;;;;;4.30;99.90;;;;;;5134385;27;19918;-56
2023/01/29 07:08:37;;;;;;;;;;;4.30;99.90;;;;;;5133403;27;19915;-56
2023/01/29 07:11:03;;;;;;;;;;;4.30;99.90;;;;;;5115228;28;19908;-56
2023/01/29 07:13:28;;;;;;;;;;;4.30;99.90;;;;;;5114394;28;19915;-55
2023/01/29 07:15:56;;;;;;;;;;;4.30;99.90;;;;;;5115022;28;19912;-56
2023/01/29 07:18:22;;;;;;;;;;;4.30;99.90;;;;;;5115117;28;19908;-56
2023/01/29 07:20:47;;;;;;;;;;;4.30;99.90;;;;;;5131404;27;19915;-55
2023/01/29 07:23:13;;;;;;;;;;;4.30;99.90;;;;;;5135423;27;19907;-56
2023/01/29 07:25:39;;;;;;;;;;;4.30;99.90;;;;;;5135384;27;19914;-55
2023/01/29 07:28:05;;;;;;;;;;;4.30;99.90;;;;;;5135121;27;19990;-56
2023/01/29 07:30:30;;;;;;;;;;;4.30;99.90;;;;;;5135366;27;19908;-57
2023/01/29 07:32:59;;;;;;;;;;;4.30;99.90;;;;;;5134472;27;20002;-55
2023/01/29 07:35:25;;;;;;;;;;;4.30;99.90;;;;;;5135321;27;19959;-55
2023/01/29 07:37:50;;;;;;;;;;;4.30;99.90;;;;;;5135073;27;19946;-56
2023/01/29 07:40:16;;;;;;;;;;;4.30;99.90;;;;;;5132412;27;19915;-56
2023/01/29 07:42:42;;;;;;;;;;;4.30;99.90;;;;;;5135133;27;19958;-56
2023/01/29 07:45:09;;;;;;;;;;;4.30;99.90;;;;;;5134863;27;19911;-56
2023/01/29 07:47:34;;;;;;;;;;;4.30;99.90;;;;;;5134154;27;19994;-57
2023/01/29 07:50:00;;;;;;;;;;;4.30;99.90;;;;;;5134322;27;19998;-56
2023/01/29 07:52:25;;;;;;;;;;;4.30;99.90;;;;;;5119347;27;19911;-55
2023/01/29 07:54:51;;;;;;;;;;;4.30;99.90;;;;;;5122095;27;19954;-56
2023/01/29 07:57:16;;;;;;;;;;;4.30;99.90;;;;;;5121423;27;19915;-56
2023/01/29 07:59:42;;;;;;;;;;;4.30;99.90;;;;;;5122325;27;19912;-55
2023/01/29 08:02:08;;;;;;;;;;;4.30;99.90;;;;;;5123201;27;19921;-57
2023/01/29 08:04:33;;;;;;;;;;;4.30;99.90;;;;;;5121558;27;20255;-57
2023/01/29 08:06:59;;;;;;;;;;;4.30;99.90;;;;;;5123083;27;20018;-56
2023/01/29 08:09:24;;;;;;;;;;;4.30;99.90;;;;;;5122511;27;19912;-56
2023/01/29 08:11:50;;;;;;;;;;;4.30;99.90;;;;;;5126153;27;19911;-55
2023/01/29 08:14:15;;;;;;;;;;;4.30;99.90;;;;;;5121950;27;19915;-57
2023/01/29 08:16:40;;;;;;;;;;;4.30;99.90;;;;;;5121174;27;19915;-55
2023/01/29 08:19:06;;;;;;;;;;;4.30;99.90;;;;;;5123312;27;20415;-56
2023/01/29 08:21:31;;;;;;;;;;;4.30;99.90;;;;;;5121271;27;19908;-56
2023/01/29 08:23:57;;;;;;;;;;;4.30;99.90;;;;;;5122295;27;19915;-56
2023/01/29 08:26:22;;;;;;;;;;;4.30;99.90;;;;;;5122900;27;19994;-56
2023/01/29 08:28:48;;;;;;;;;;;4.40;99.90;;;;;;5121659;27;19938;-57
2023/01/29 08:31:19;;;;;;;;;;;4.40;99.90;;;;;;5122779;27;20057;-57
2023/01/29 08:33:45;;;;;;;;;;;4.40;99.90;;;;;;5132388;27;19907;-57
2023/01/29 08:36:10;;;;;;;;;;;4.40;99.90;;;;;;5133144;27;19916;-55
2023/01/29 08:38:36;;;;;;;;;;;4.50;99.90;;;;;;5126816;27;19912;-56
2023/01/29 08:41:02;;;;;;;;;;;4.50;99.90;;;;;;5120130;27;19919;-55
2023/01/29 08:43:27;;;;;;;;;;;4.50;99.90;;;;;;5113124;28;19920;-55
2023/01/29 08:45:53;;;;;;;;;;;4.50;99.90;;;;;;5116639;27;19915;-55
2023/01/29 08:48:18;;;;;;;;;;;4.50;99.90;;;;;;5116331;27;20045;-55
2023/01/29 08:50:44;;;;;;;;;;;4.50;99.90;;;;;;5120518;27;20380;-56
2023/01/29 08:53:09;;;;;;;;;;;4.50;99.90;;;;;;5127246;27;20380;-56
2023/01/29 08:55:36;;;;;;;;;;;4.50;99.90;;;;;;5133475;27;20099;-56
2023/01/29 08:58:02;;;;;;;;;;;4.60;99.90;;;;;;5132851;27;19907;-57
2023/01/29 09:00:28;;;;;;;;;;;4.60;99.90;;;;;;5133719;27;20018;-55
2023/01/29 09:02:53;;;;;;;;;;;4.60;99.90;;;;;;5133539;27;19947;-55
2023/01/29 09:05:19;;;;;;;;;;;4.70;99.90;;;;;;5132848;27;20376;-56
2023/01/29 09:07:44;;;;;;;;;;;4.70;99.90;;;;;;5133667;28;19942;-55
2023/01/29 09:10:11;;;;;;;;;;;4.70;99.90;;;;;;5133508;28;19915;-55
2023/01/29 09:12:36;;;;;;;;;;;4.70;99.90;;;;;;5128834;28;19934;-56
2023/01/29 09:15:02;;;;;;;;;;;4.80;99.90;;;;;;5133324;28;20265;-56
2023/01/29 09:17:28;;;;;;;;;;;4.80;99.90;;;;;;5124582;28;19911;-56
2023/01/29 09:19:53;;;;;;;;;;;4.80;99.90;;;;;;5121509;28;19990;-56
2023/01/29 09:22:19;;;;;;;;;;;4.80;99.90;;;;;;5120758;28;20066;-55
2023/01/29 09:24:44;;;;;;;;;;;4.90;99.90;;;;;;5120948;28;19916;-56
2023/01/29 09:27:10;;;;;;;;;;;4.90;99.90;;;;;;5120051;28;19927;-56
2023/01/29 09:29:36;;;;;;;;;;;4.90;99.90;;;;;;5124717;27;20433;-57
2023/01/29 09:32:02;;;;;;;;;;;4.90;99.90;;;;;;5121038;27;19923;-56
2023/01/29 09:34:28;;;;;;;;;;;5.00;99.90;;;;;;5115349;28;19911;-56
2023/01/29 09:36:53;;;;;;;;;;;5.00;99.90;;;;;;5116637;28;19976;-56
2023/01/29 09:39:19;;;;;;;;;;;5.00;99.90;;;;;;5116867;28;19907;-56
2023/01/29 09:42:22;;;;;;;;;;;5.00;99.90;;;;;;5115976;28;19908;-56
2023/01/29 09:44:50;;;;;;;;;;;5.00;99.90;;;;;;5037545;28;19924;-57
2023/01/29 09:47:17;;;;;;;;;;;5.00;99.90;;;;;;5052774;28;19909;-55
2023/01/29 09:49:45;;;;;;;;;;;5.00;99.90;;;;;;5083761;28;19990;-56
2023/01/29 09:52:16;;;;;;;;;;;5.00;99.90;;;;;;5131961;27;19912;-57
2023/01/29 09:54:41;;;;;;;;;;;5.00;99.90;;;;;;5136097;27;20420;-57
2023/01/29 09:57:08;;;;;;;;;;;5.00;99.90;;;;;;5136597;27;19919;-57
2023/01/29 09:59:34;;;;;;;;;;;4.90;99.90;;;;;;5136906;27;19931;-56
2023/01/29 10:02:18;;;;;;;;;;;4.90;99.90;;;;;;5136180;27;20358;-56
2023/01/29 10:04:58;;;;;;;;;;;4.80;99.90;;;;;;5121162;27;19919;-56
2023/01/29 10:07:46;;;;;;;;;;;4.80;99.90;;;;;;5136523;27;19911;-57
2023/01/29 10:10:34;;;;;;;;;;;4.80;99.90;;;;;;5136776;27;19907;-56
2023/01/29 10:13:05;;;;;;;;;;;4.80;99.90;;;;;;5136663;27;19908;-57
2023/01/29 10:15:30;;;;;;;;;;;4.90;99.90;;;;;;5136065;27;19959;-56
2023/01/29 10:18:06;;;;;;;;;;;4.90;99.90;;;;;;5136575;27;20306;-56
2023/01/29 10:20:35;;;;;;;;;;;5.00;99.90;;;;;;5136577;27;19915;-57
2023/01/29 10:23:15;;;;;;;;;;;5.10;99.90;;;;;;5135726;27;20265;-56
2023/01/29 10:25:43;;;;;;;;;;;5.10;99.90;;;;;;5136588;27;19952;-55
2023/01/29 10:28:29;;;;;;;;;;;5.10;99.90;;;;;;5135156;27;19911;-54
2023/01/29 10:30:57;;;;;;;;;;;5.10;99.90;;;;;;5114916;28;19911;-55
2023/01/29 10:33:54;;;;;;;;;;;5.10;99.90;;;;;;5115864;28;19908;-56
2023/01/29 10:36:22;;;;;;;;;;;5.00;99.90;;;;;;5055902;27;20007;-56
2023/01/29 10:38:51;;;;;;;;;;;5.00;99.90;;;;;;5125584;27;19920;-55
2023/01/29 10:41:37;;;;;;;;;;;5.10;99.90;;;;;;5122967;27;19965;-57
2023/01/29 10:44:16;;;;;;;;;;;5.00;99.90;;;;;;5123656;27;19958;-56
2023/01/29 10:46:47;;;;;;;;;;;5.00;99.90;;;;;;5124808;27;20312;-56
2023/01/29 10:49:18;;;;;;;;;;;5.00;99.90;;;;;;5123231;27;20445;-55
2023/01/29 10:51:58;;;;;;;;;;;5.00;99.90;;;;;;5117484;27;19951;-54
2023/01/29 10:54:26;;;;;;;;;;;5.00;99.90;;;;;;5117930;27;20018;-57
2023/01/29 10:56:58;;;;;;;;;;;5.00;99.90;;;;;;5122642;27;19920;-57
2023/01/29 10:59:35;;;;;;;;;;;5.00;99.90;;;;;;5136147;27;20172;-56
2023/01/29 11:02:02;;;;;;;;;;;5.00;99.90;;;;;;5122613;27;19910;-55
2023/01/29 11:04:28;;;;;;;;;;;5.00;99.90;;;;;;5114563;28;19908;-56
2023/01/29 11:06:53;;;;;;;;;;;5.10;99.90;;;;;;5126773;27;19918;-55
2023/01/29 11:09:31;;;;;;;;;;;5.00;99.90;;;;;;5125287;27;20273;-55
2023/01/29 11:12:01;;;;;;;;;;;5.00;99.90;;;;;;5125408;27;19914;-57
2023/01/29 11:14:41;;;;;;;;;;;5.00;99.90;;;;;;5135742;27;19912;-56
2023/01/29 11:17:13;;;;;;;;;;;5.10;99.90;;;;;;5135563;27;19922;-56
2023/01/29 11:19:43;;;;;;;;;;;5.00;99.90;;;;;;5135107;27;19998;-56
2023/01/29 11:22:15;;;;;;;;;;;5.00;99.90;;;;;;5135535;27;19912;-57
2023/01/29 11:24:41;;;;;;;;;;;5.00;99.90;;;;;;5135380;27;19990;-56
2023/01/29 11:27:24;;;;;;;;;;;5.00;99.90;;;;;;5131226;27;19998;-56
2023/01/29 11:29:50;;;;;;;;;;;5.10;99.90;;;;;;5121655;27;19968;-55
2023/01/29 11:32:22;;;;;;;;;;;5.10;99.90;;;;;;5133366;27;19958;-55
2023/01/29 11:35:06;;;;;;;;;;;5.10;99.90;;;;;;5132047;27;19916;-55
2023/01/29 11:37:39;;;;;;;;;;;5.00;99.90;;;;;;5122847;27;19919;-56
2023/01/29 11:40:22;;;;;;;;;;;5.10;99.90;;;;;;5125397;27;19919;-56
2023/01/29 11:42:48;;;;;;;;;;;5.00;99.90;;;;;;5134483;27;20385;-57
2023/01/29 11:45:20;;;;;;;;;;;5.00;99.90;;;;;;5134687;27;19907;-55
2023/01/29 11:47:49;;;;;;;;;;;5.00;99.90;;;;;;5133740;27;20002;-56
2023/01/29 11:50:23;;;;;;;;;;;5.00;99.90;;;;;;5134580;27;19912;-55
2023/01/29 11:52:48;;;;;;;;;;;5.00;99.90;;;;;;5135053;27;19915;-57
2023/01/29 11:55:16;;;;;;;;;;;5.00;99.90;;;;;;5133784;27;19931;-56
2023/01/29 11:57:45;;;;;;;;;;;5.00;99.90;;;;;;5134969;27;19915;-56
2023/01/29 12:00:10;;;;;;;;;;;5.00;99.90;;;;;;5133873;27;19908;-56
2023/01/29 12:02:37;;;;;;;;;;;5.00;99.90;;;;;;5134763;27;20362;-56
2023/01/29 12:05:14;;;;;;;;;;;4.90;99.90;;;;;;5130168;27;19911;-56
2023/01/29 12:07:40;;;;;;;;;;;4.90;99.90;;;;;;5113513;28;19915;-57
2023/01/29 12:10:25;;;;;;;;;;;4.90;99.90;;;;;;5114090;28;19908;-56
2023/01/29 12:13:02;;;;;;;;;;;4.90;99.90;;;;;;5113837;28;20283;-55
2023/01/29 12:15:27;;;;;;;;;;;4.90;99.90;;;;;;5119548;27;19920;-56
2023/01/29 12:18:02;;;;;;;;;;;4.90;99.90;;;;;;5134543;27;19964;-55
2023/01/29 12:20:37;;;;;;;;;;;4.90;99.90;;;;;;5134499;27;19915;-57
2023/01/29 12:23:21;;;;;;;;;;;4.90;99.90;;;;;;5133611;27;20358;-57
2023/01/29 12:26:16;;;;;;;;;;;5.00;99.90;;;;;;5134472;27;20008;-57
2023/01/29 12:28:44;;;;;;;;;;;5.00;99.90;;;;;;5042592;27;19916;-57
2023/01/29 12:31:14;;;;;;;;;;;5.10;99.90;;;;;;5127833;27;19915;-56
2023/01/29 12:33:59;;;;;;;;;;;5.10;99.90;;;;;;5125488;27;20520;-56
2023/01/29 12:36:31;;;;;;;;;;;5.20;99.90;;;;;;5120672;27;19923;-56
2023/01/29 12:38:58;;;;;;;;;;;5.20;99.90;;;;;;5133723;27;20018;-57
2023/01/29 12:41:35;;;;;;;;;;;5.30;99.90;;;;;;5134046;27;19908;-55
2023/01/29 12:44:11;;;;;;;;;;;5.40;99.90;;;;;;5133278;27;19959;-56
2023/01/29 12:46:40;;;;;;;;;;;5.50;99.90;;;;;;5134126;27;20365;-57
2023/01/29 12:49:10;;;;;;;;;;;5.50;99.90;;;;;;5133383;27;19959;-55
2023/01/29 12:51:48;;;;;;;;;;;5.60;99.90;;;;;;5131528;27;19994;-56
2023/01/29 12:54:16;;;;;;;;;;;5.70;99.90;;;;;;5129445;27;19915;-56
2023/01/29 12:56:54;;;;;;;;;;;5.70;99.90;;;;;;5121655;27;19951;-58
2023/01/29 12:59:20;;;;;;;;;;;5.70;99.90;;;;;;5113285;28;19912;-56
2023/01/29 13:01:51;;;;;;;;;;;5.70;99.90;;;;;;5118241;27;19968;-57
2023/01/29 13:04:20;;;;;;;;;;;5.80;99.90;;;;;;5121246;27;19922;-57
2023/01/29 13:06:55;;;;;;;;;;;5.80;99.90;;;;;;5112237;28;19907;-56
2023/01/29 13:09:26;;;;;;;;;;;5.80;99.90;;;;;;5112101;28;19960;-56
2023/01/29 13:11:57;;;;;;;;;;;5.80;99.90;;;;;;5111192;28;19908;-57
2023/01/29 13:14:25;;;;;;;;;;;5.80;99.90;;;;;;5112276;28;19908;-55
2023/01/29 13:16:53;;;;;;;;;;;5.80;99.90;;;;;;5115766;28;20258;-56
2023/01/29 13:19:22;;;;;;;;;;;5.80;99.90;;;;;;5111289;28;19918;-56
2023/01/29 13:21:49;;;;;;;;;;;5.80;99.90;;;;;;5111792;28;19919;-56
2023/01/29 13:24:16;;;;;;;;;;;5.80;99.90;;;;;;5112038;28;19908;-56
2023/01/29 13:26:45;;;;;;;;;;;5.70;99.90;;;;;;5111401;28;19919;-56
2023/01/29 13:29:24;;;;;;;;;;;5.60;99.90;;;;;;5111926;28;20548;-56
2023/01/29 13:31:52;;;;;;;;;;;5.50;99.90;;;;;;5110709;28;20494;-56
2023/01/29 13:34:20;;;;;;;;;;;5.50;99.90;;;;;;5111736;28;20466;-57
2023/01/29 13:36:50;;;;;;;;;;;5.60;99.90;;;;;;5125160;28;19920;-57
2023/01/29 13:39:22;;;;;;;;;;;5.50;99.90;;;;;;5111313;28;19907;-57
2023/01/29 13:41:48;;;;;;;;;;;5.50;99.90;;;;;;5111655;28;19920;-57
2023/01/29 13:44:33;;;;;;;;;;;5.50;99.90;;;;;;5111590;28;19912;-55
2023/01/29 13:46:59;;;;;;;;;;;5.50;99.90;;;;;;5122204;28;20366;-56
2023/01/29 13:49:30;;;;;;;;;;;5.50;99.90;;;;;;5132595;28;19908;-57
2023/01/29 13:51:56;;;;;;;;;;;5.50;99.90;;;;;;5131646;28;19911;-56
2023/01/29 13:54:23;;;;;;;;;;;5.50;99.90;;;;;;5121041;28;19919;-56
2023/01/29 13:56:52;;;;;;;;;;;5.50;99.90;;;;;;5119245;28;19931;-55
2023/01/29 13:59:21;;;;;;;;;;;5.50;99.90;;;;;;5119809;28;19908;-57
2023/01/29 14:01:47;;;;;;;;;;;5.50;99.90;;;;;;5120751;28;19918;-56
2023/01/29 14:04:22;;;;;;;;;;;5.50;99.90;;;;;;5122255;28;19990;-57
2023/01/29 14:06:52;;;;;;;;;;;5.50;99.90;;;;;;5122356;28;20679;-55
2023/01/29 14:09:36;;;;;;;;;;;5.50;99.90;;;;;;5122559;28;19912;-57
2023/01/29 14:12:02;;;;;;;;;;;5.40;99.90;;;;;;5123428;28;19907;-56
2023/01/29 14:14:46;;;;;;;;;;;5.40;99.90;;;;;;5120528;27;19908;-55
2023/01/29 14:17:12;;;;;;;;;;;5.40;99.90;;;;;;5125307;27;19923;-56
2023/01/29 14:19:45;;;;;;;;;;;5.30;99.90;;;;;;5125442;27;19914;-56
2023/01/29 14:22:18;;;;;;;;;;;5.40;99.90;;;;;;5124470;27;19915;-56
2023/01/29 14:24:43;;;;;;;;;;;5.30;99.90;;;;;;5122219;27;19934;-56
2023/01/29 14:27:18;;;;;;;;;;;5.30;99.90;;;;;;5128000;27;20381;-57
2023/01/29 14:29:43;;;;;;;;;;;5.20;99.90;;;;;;5128090;27;19969;-56
2023/01/29 14:32:18;;;;;;;;;;;5.20;99.90;;;;;;5126280;27;19911;-56
2023/01/29 14:34:46;;;;;;;;;;;5.20;99.90;;;;;;5126834;27;19956;-56
2023/01/29 14:37:15;;;;;;;;;;;5.20;99.90;;;;;;5124670;27;20389;-57
2023/01/29 14:39:42;;;;;;;;;;;5.20;99.90;;;;;;5124746;27;19907;-57
2023/01/29 14:42:16;;;;;;;;;;;5.10;99.90;;;;;;5123631;27;19916;-56
2023/01/29 14:44:47;;;;;;;;;;;5.10;99.90;;;;;;5124120;27;19968;-56
2023/01/29 14:47:17;;;;;;;;;;;5.00;99.90;;;;;;5125324;27;19915;-56
2023/01/29 14:49:51;;;;;;;;;;;5.00;99.90;;;;;;5123805;27;19919;-55
2023/01/29 14:52:18;;;;;;;;;;;5.00;99.90;;;;;;5124878;27;19960;-57
2023/01/29 14:54:46;;;;;;;;;;;4.90;99.90;;;;;;5126069;27;19930;-55
2023/01/29 14:57:13;;;;;;;;;;;4.90;99.90;;;;;;5124216;27;19959;-55
2023/01/29 14:59:45;;;;;;;;;;;4.80;99.90;;;;;;5124541;27;19911;-57
2023/01/29 15:02:19;;;;;;;;;;;4.80;99.90;;;;;;5124462;27;19912;-55
2023/01/29 15:04:53;;;;;;;;;;;4.80;99.90;;;;;;5129371;27;19918;-57
2023/01/29 15:07:23;;;;;;;;;;;4.70;99.90;;;;;;5136064;27;19956;-56
2023/01/29 15:09:54;;;;;;;;;;;4.70;99.90;;;;;;5131902;27;19919;-58